Time;durP1;ratioP1;P1;durP2;ratioP2;P2;SDS_P1;SDS_P2;PMS_P1;PMS_P2;Temp;Humidity;BMP_temperature;BMP_pressure;BME280_temperature;BME280_humidity;BME280_pressure;Samples;Min_cycle;Max_cycle;Signal;HPM_P1;HPM_P2
2021/04/07 00:00:47;;;;;;;5.68;3.40;;;;;;;-145.19;100.00;59999.88;5002872;28;20042;-71
2021/04/07 00:03:13;;;;;;;6.88;3.20;;;;;;;-145.19;100.00;59999.88;5011087;28;20097;-72
2021/04/07 00:05:43;;;;;;;8.15;3.45;;;;;;;-145.19;100.00;59999.88;5013990;28;20078;-73
2021/04/07 00:08:10;;;;;;;6.10;2.78;;;;;;;-145.19;100.00;59999.88;5009568;28;20058;-72
2021/04/07 00:10:39;;;;;;;4.57;3.30;;;;;;;-145.19;100.00;59999.88;5024486;28;20042;-71
2021/04/07 00:13:07;;;;;;;6.15;3.03;;;;;;;-145.19;100.00;59999.88;5012837;28;20454;-72
2021/04/07 00:15:34;;;;;;;6.25;2.78;;;;;;;-145.19;100.00;59999.88;5012606;28;20081;-71
2021/04/07 00:18:02;;;;;;;7.50;3.13;;;;;;;-145.19;100.00;59999.88;5016667;28;20073;-71
2021/04/07 00:20:29;;;;;;;6.03;2.83;;;;;;;-145.19;100.00;59999.88;5018536;28;20295;-72
2021/04/07 00:22:56;;;;;;;6.88;3.50;;;;;;;-145.19;100.00;59999.88;5020260;28;20105;-72
2021/04/07 00:25:23;;;;;;;5.47;3.35;;;;;;;-145.19;100.00;59999.88;5018704;28;20046;-72
2021/04/07 00:28:02;;;;;;;;;;;;;;;-145.19;100.00;59999.88;5019851;28;20050;-72
2021/04/07 00:30:31;;;;;;;6.13;3.05;;;;;;;-145.19;100.00;59999.88;5018946;28;19922;-72
2021/04/07 00:32:57;;;;;;;7.22;2.90;;;;;;;-145.19;100.00;59999.88;5015376;28;20041;-71
2021/04/07 00:35:24;;;;;;;8.30;3.72;;;;;;;-145.19;100.00;59999.88;5015828;28;20052;-71
2021/04/07 00:37:53;;;;;;;5.43;3.72;;;;;;;-145.19;100.00;59999.88;5015425;28;20042;-71
2021/04/07 00:40:20;;;;;;;7.65;3.63;;;;;;;-145.19;100.00;59999.88;5015220;28;20043;-72
2021/04/07 00:42:49;;;;;;;6.18;3.65;;;;;;;-145.19;100.00;59999.88;5015398;28;20134;-72
2021/04/07 00:45:18;;;;;;;6.47;3.67;;;;;;;-145.19;100.00;59999.88;5019002;28;20122;-72
2021/04/07 00:47:53;;;;;;;6.73;4.10;;;;;;;-145.19;100.00;59999.88;5009252;28;20043;-72
2021/04/07 00:50:23;;;;;;;6.15;3.63;;;;;;;-145.19;100.00;59999.88;5016317;28;20542;-71
2021/04/07 00:52:50;;;;;;;6.22;4.13;;;;;;;-145.19;100.00;59999.88;5011034;28;20057;-72
2021/04/07 00:55:24;;;;;;;8.10;4.10;;;;;;;-145.19;100.00;59999.88;5032572;28;20120;-72
2021/04/07 00:57:52;;;;;;;8.07;3.60;;;;;;;-145.19;100.00;59999.88;5019013;28;20076;-71
2021/04/07 01:00:19;;;;;;;7.63;4.45;;;;;;;-145.19;100.00;59999.88;5006230;28;20105;-71
2021/04/07 01:02:45;;;;;;;9.63;4.50;;;;;;;-145.19;100.00;59999.88;5014759;28;20068;-72
2021/04/07 01:05:13;;;;;;;9.25;4.07;;;;;;;-145.19;100.00;59999.88;5014095;28;20045;-72
2021/04/07 01:07:39;;;;;;;8.68;4.75;;;;;;;-145.19;100.00;59999.88;5007381;28;20066;-72
2021/04/07 01:10:08;;;;;;;6.75;3.78;;;;;;;-145.19;100.00;59999.88;5014228;28;20571;-72
2021/04/07 01:12:34;;;;;;;5.55;3.72;;;;;;;-145.19;100.00;59999.88;5011929;28;20073;-72
2021/04/07 01:15:01;;;;;;;7.75;4.15;;;;;;;-145.19;100.00;59999.88;5009189;28;20053;-71
2021/04/07 01:17:28;;;;;;;6.00;4.13;;;;;;;-145.19;100.00;59999.88;5014165;28;20046;-72
2021/04/07 01:19:54;;;;;;;6.07;3.90;;;;;;;-145.19;100.00;59999.88;5012380;28;20077;-72
2021/04/07 01:22:22;;;;;;;6.72;3.92;;;;;;;-145.19;100.00;59999.88;5011431;28;20034;-72
2021/04/07 01:24:49;;;;;;;6.75;3.47;;;;;;;-145.19;100.00;59999.88;5011111;28;20038;-71
2021/04/07 01:27:16;;;;;;;4.22;3.22;;;;;;;-145.19;100.00;59999.88;5009927;28;20065;-72
2021/04/07 01:29:43;;;;;;;5.78;3.92;;;;;;;-145.19;100.00;59999.88;5010128;28;20069;-72
2021/04/07 01:32:10;;;;;;;5.28;3.35;;;;;;;-145.19;100.00;59999.88;5017637;28;20096;-71
2021/04/07 01:34:43;;;;;;;6.75;4.03;;;;;;;-145.19;100.00;59999.88;5028975;28;20141;-72
2021/04/07 01:37:11;;;;;;;6.78;4.20;;;;;;;-145.19;100.00;59999.88;5011364;28;20065;-72
2021/04/07 01:39:38;;;;;;;6.78;3.83;;;;;;;-145.19;100.00;59999.88;5010760;28;20069;-72
2021/04/07 01:42:07;;;;;;;6.43;4.30;;;;;;;-145.19;100.00;59999.88;5014068;28;20092;-72
2021/04/07 01:44:37;;;;;;;11.07;3.92;;;;;;;-145.19;100.00;59999.88;5010757;28;20046;-72
2021/04/07 01:47:05;;;;;;;8.43;3.78;;;;;;;-145.19;100.00;59999.88;5009202;28;20134;-71
2021/04/07 01:49:32;;;;;;;6.07;3.58;;;;;;;-145.19;100.00;59999.88;5017409;28;20096;-72
2021/04/07 01:51:59;;;;;;;5.93;4.25;;;;;;;-145.19;100.00;59999.88;5014021;28;20054;-72
2021/04/07 01:54:28;;;;;;;7.00;3.50;;;;;;;-145.19;100.00;59999.88;5012008;28;20514;-72
2021/04/07 01:56:57;;;;;;;5.72;3.63;;;;;;;-145.19;100.00;59999.88;5012751;28;20048;-71
2021/04/07 01:59:30;;;;;;;5.72;3.80;;;;;;;-145.19;100.00;59999.88;5013142;28;20073;-72
2021/04/07 02:01:57;;;;;;;6.07;3.67;;;;;;;-145.19;100.00;59999.88;5014542;28;20068;-72
2021/04/07 02:04:24;;;;;;;4.13;3.00;;;;;;;-145.19;100.00;59999.88;5013588;28;20049;-72
2021/04/07 02:06:55;;;;;;;4.80;3.22;;;;;;;-145.19;100.00;59999.88;5013759;28;20069;-72
2021/04/07 02:09:21;;;;;;;5.50;3.40;;;;;;;-145.19;100.00;59999.88;5006962;28;20050;-72
2021/04/07 02:11:50;;;;;;;9.60;3.80;;;;;;;-145.19;100.00;59999.88;5011632;28;20038;-72
2021/04/07 02:14:22;;;;;;;8.77;3.67;;;;;;;-145.19;100.00;59999.88;5022748;28;20072;-72
2021/04/07 02:16:51;;;;;;;8.57;3.55;;;;;;;-145.19;100.00;59999.88;5015076;28;20104;-72
2021/04/07 02:19:17;;;;;;;14.95;4.13;;;;;;;-145.19;100.00;59999.88;5033249;28;20062;-72
2021/04/07 02:21:43;;;;;;;7.38;4.55;;;;;;;-145.19;100.00;59999.88;5008326;28;20038;-72
2021/04/07 02:24:10;;;;;;;10.48;5.07;;;;;;;-145.19;100.00;59999.88;5009110;28;20065;-72
2021/04/07 02:26:37;;;;;;;9.60;4.75;;;;;;;-145.19;100.00;59999.88;5005618;28;20137;-72
2021/04/07 02:29:03;;;;;;;7.90;5.25;;;;;;;-145.19;100.00;59999.88;5014088;28;20446;-71
2021/04/07 02:31:29;;;;;;;7.93;4.35;;;;;;;-145.19;100.00;59999.88;5006451;28;20046;-72
2021/04/07 02:33:55;;;;;;;7.32;4.35;;;;;;;-145.19;100.00;59999.88;5006571;28;20050;-72
2021/04/07 02:36:22;;;;;;;10.52;4.93;;;;;;;-145.19;100.00;59999.88;5013276;28;20069;-72
2021/04/07 02:38:48;;;;;;;7.80;4.47;;;;;;;-145.19;100.00;59999.88;5007014;28;20180;-72
2021/04/07 02:41:14;;;;;;;8.50;4.25;;;;;;;-145.19;100.00;59999.88;5025093;28;20042;-72
2021/04/07 02:43:40;;;;;;;9.05;5.53;;;;;;;-145.19;100.00;59999.88;5021609;28;20145;-72
2021/04/07 02:46:07;;;;;;;7.45;5.68;;;;;;;-145.19;100.00;59999.88;5006802;28;20038;-72
2021/04/07 02:48:33;;;;;;;7.15;5.07;;;;;;;-145.19;100.00;59999.88;5006939;28;20507;-73
2021/04/07 02:51:00;;;;;;;8.80;6.13;;;;;;;-145.19;100.00;59999.88;5005911;28;20477;-72
2021/04/07 02:53:26;;;;;;;13.85;7.60;;;;;;;-145.19;100.00;59999.88;5014442;28;20042;-72
2021/04/07 02:55:52;;;;;;;13.10;8.80;;;;;;;-145.19;100.00;59999.88;5010032;28;20073;-72
2021/04/07 02:58:18;;;;;;;12.52;7.97;;;;;;;-145.19;100.00;59999.88;5009843;28;20088;-72
2021/04/07 03:00:44;;;;;;;11.98;8.35;;;;;;;-145.19;100.00;59999.88;5005416;28;20375;-72
2021/04/07 03:03:10;;;;;;;12.38;8.25;;;;;;;-145.19;100.00;59999.88;5009889;28;20076;-71
2021/04/07 03:05:40;;;;;;;19.23;11.18;;;;;;;-145.19;100.00;59999.88;5008553;28;20046;-71
2021/04/07 03:08:06;;;;;;;15.63;10.63;;;;;;;-145.19;100.00;59999.88;5009940;28;20639;-72
2021/04/07 03:10:32;;;;;;;20.88;13.30;;;;;;;-145.19;100.00;59999.88;5001954;28;20050;-71
2021/04/07 03:12:58;;;;;;;17.42;12.60;;;;;;;-145.19;100.00;59999.88;5007627;28;20050;-72
2021/04/07 03:15:24;;;;;;;222.35;27.88;;;;;;;-145.19;100.00;59999.88;5007573;28;20062;-72
2021/04/07 03:17:50;;;;;;;28.52;13.05;;;;;;;-145.19;100.00;59999.88;5010495;28;20505;-71
2021/04/07 03:20:18;;;;;;;17.10;10.73;;;;;;;-145.19;100.00;59999.88;5024228;28;20145;-72
2021/04/07 03:22:44;;;;;;;61.60;14.82;;;;;;;-145.19;100.00;59999.88;5012073;28;20117;-71
2021/04/07 03:25:10;;;;;;;25.70;10.98;;;;;;;-145.19;100.00;59999.88;5012872;28;20124;-72
2021/04/07 03:27:36;;;;;;;20.42;10.43;;;;;;;-145.19;100.00;59999.88;5006482;28;20054;-71
2021/04/07 03:30:04;;;;;;;34.25;12.18;;;;;;;-145.19;100.00;59999.88;5011719;28;20426;-72
2021/04/07 03:32:30;;;;;;;;;;;;;;;-145.19;100.00;59999.88;5009693;28;20494;-71
2021/04/07 03:34:56;;;;;;;17.23;9.82;;;;;;;-145.19;100.00;59999.88;5008121;28;19952;-72
2021/04/07 03:37:22;;;;;;;15.20;10.02;;;;;;;-145.19;100.00;59999.88;5003811;28;20049;-71
2021/04/07 03:39:48;;;;;;;132.02;21.27;;;;;;;-145.19;100.00;59999.88;5005961;28;20049;-72
2021/04/07 03:42:14;;;;;;;14.13;9.55;;;;;;;-145.19;100.00;59999.88;5011475;28;20070;-72
2021/04/07 03:44:41;;;;;;;18.92;11.25;;;;;;;-145.19;100.00;59999.88;5011364;28;20506;-71
2021/04/07 03:47:07;;;;;;;34.63;14.15;;;;;;;-145.19;100.00;59999.88;5027565;28;20141;-71
2021/04/07 03:49:33;;;;;;;20.90;12.45;;;;;;;-145.19;100.00;59999.88;5017264;28;20133;-72
2021/04/07 03:51:59;;;;;;;48.65;13.77;;;;;;;-145.19;100.00;59999.88;5010987;28;20038;-72
2021/04/07 03:54:26;;;;;;;101.85;20.83;;;;;;;-145.19;100.00;59999.88;5007105;28;20130;-72
2021/04/07 03:56:54;;;;;;;126.47;23.43;;;;;;;-145.19;100.00;59999.88;5005222;28;20077;-72
2021/04/07 03:59:20;;;;;;;28.20;15.88;;;;;;;-145.19;100.00;59999.88;5010091;28;20310;-72
2021/04/07 04:01:46;;;;;;;36.00;17.65;;;;;;;-145.19;100.00;59999.88;5008603;28;20121;-72
2021/04/07 04:04:13;;;;;;;52.00;15.65;;;;;;;-145.19;100.00;59999.88;5013278;28;20038;-72
2021/04/07 04:06:44;;;;;;;120.07;21.17;;;;;;;-145.19;100.00;59999.88;5010439;28;20050;-71
2021/04/07 04:09:12;;;;;;;111.18;21.33;;;;;;;-145.19;100.00;59999.88;5010352;28;20617;-72
2021/04/07 04:11:38;;;;;;;80.57;18.90;;;;;;;-145.19;100.00;59999.88;5009764;28;20037;-72
2021/04/07 04:14:04;;;;;;;191.10;23.55;;;;;;;-145.19;100.00;59999.88;5004276;28;20120;-72
2021/04/07 04:16:30;;;;;;;19.83;13.75;;;;;;;-145.19;100.00;59999.88;5019801;28;20046;-72
2021/04/07 04:18:56;;;;;;;16.13;11.32;;;;;;;-145.19;100.00;59999.88;5006774;28;20077;-72
2021/04/07 04:21:22;;;;;;;11.13;9.20;;;;;;;-145.19;100.00;59999.88;5007294;28;20065;-72
2021/04/07 04:23:48;;;;;;;16.05;11.75;;;;;;;-145.19;100.00;59999.88;5006286;28;20046;-71
2021/04/07 04:26:15;;;;;;;25.67;12.27;;;;;;;-145.19;100.00;59999.88;5007057;28;20030;-72
2021/04/07 04:28:41;;;;;;;25.17;15.15;;;;;;;-145.19;100.00;59999.88;5008514;28;20106;-72
2021/04/07 04:31:07;;;;;;;13.20;10.77;;;;;;;-145.19;100.00;59999.88;5021974;28;20119;-72
2021/04/07 04:33:34;;;;;;;21.45;11.95;;;;;;;-145.19;100.00;59999.88;5014043;28;20128;-73
2021/04/07 04:36:00;;;;;;;17.38;13.05;;;;;;;-145.19;100.00;59999.88;5002066;28;20042;-71
2021/04/07 04:38:26;;;;;;;14.88;10.35;;;;;;;-145.19;100.00;59999.88;5005309;28;20089;-72
2021/04/07 04:40:52;;;;;;;12.85;9.27;;;;;;;-145.19;100.00;59999.88;5006758;28;20084;-72
2021/04/07 04:43:19;;;;;;;14.25;10.32;;;;;;;-145.19;100.00;59999.88;5005876;28;20125;-72
2021/04/07 04:45:45;;;;;;;15.48;11.05;;;;;;;-145.19;100.00;59999.88;5001467;28;20097;-72
2021/04/07 04:48:11;;;;;;;54.42;15.73;;;;;;;-145.19;100.00;59999.88;5010505;28;20479;-72
2021/04/07 04:50:37;;;;;;;14.82;10.85;;;;;;;-145.19;100.00;59999.88;5009697;28;20065;-70
2021/04/07 04:53:03;;;;;;;13.98;10.18;;;;;;;-145.19;100.00;59999.88;5007434;28;20056;-70
2021/04/07 04:55:29;;;;;;;14.95;10.63;;;;;;;-145.19;100.00;59999.88;4987924;28;20060;-69
2021/04/07 04:57:56;;;;;;;12.93;9.52;;;;;;;-145.19;100.00;59999.88;5013163;28;20088;-69
2021/04/07 05:00:23;;;;;;;15.70;9.35;;;;;;;-145.19;100.00;59999.88;5009906;28;20042;-69
2021/04/07 05:02:49;;;;;;;11.48;8.75;;;;;;;-145.19;100.00;59999.88;5008709;28;20457;-68
2021/04/07 05:05:15;;;;;;;13.13;10.15;;;;;;;-145.19;100.00;59999.88;5023808;28;20144;-68
2021/04/07 05:07:41;;;;;;;14.38;10.93;;;;;;;-145.19;100.00;59999.88;5005653;28;20120;-71
2021/04/07 05:10:08;;;;;;;13.45;9.48;;;;;;;-145.19;100.00;59999.88;5002001;28;20105;-71
2021/04/07 05:12:34;;;;;;;10.90;9.43;;;;;;;-145.19;100.00;59999.88;5010786;28;20084;-71
2021/04/07 05:15:00;;;;;;;13.38;10.02;;;;;;;-145.19;100.00;59999.88;5006898;28;20091;-71
2021/04/07 05:17:28;;;;;;;11.57;8.13;;;;;;;-145.19;100.00;59999.88;5003941;28;20137;-71
2021/04/07 05:19:56;;;;;;;9.90;8.05;;;;;;;-145.19;100.00;59999.88;5008123;28;20129;-73
2021/04/07 05:22:22;;;;;;;11.68;9.13;;;;;;;-145.19;100.00;59999.88;5007112;28;20393;-72
2021/04/07 05:24:48;;;;;;;11.27;7.95;;;;;;;-145.19;100.00;59999.88;5009021;28;20049;-71
2021/04/07 05:27:14;;;;;;;12.05;8.10;;;;;;;-145.19;100.00;59999.88;5017811;28;20065;-72
2021/04/07 05:29:40;;;;;;;12.35;10.13;;;;;;;-145.19;100.00;59999.88;5006620;28;20069;-71
2021/04/07 05:32:08;;;;;;;15.07;10.57;;;;;;;-145.19;100.00;59999.88;5008068;28;20033;-72
2021/04/07 05:34:35;;;;;;;12.93;8.63;;;;;;;-145.19;100.00;59999.88;5008076;28;20046;-71
2021/04/07 05:37:02;;;;;;;16.05;11.75;;;;;;;-145.19;100.00;59999.88;5008090;28;20583;-71
2021/04/07 05:39:28;;;;;;;15.00;11.75;;;;;;;-145.19;100.00;59999.88;5008089;28;20502;-72
2021/04/07 05:41:54;;;;;;;13.18;10.30;;;;;;;-145.19;100.00;59999.88;5011459;28;20585;-71
2021/04/07 05:44:21;;;;;;;15.68;11.25;;;;;;;-145.19;100.00;59999.88;5024863;28;20093;-71
2021/04/07 05:46:47;;;;;;;11.68;8.95;;;;;;;-145.19;100.00;59999.88;5004865;28;20056;-71
2021/04/07 05:49:14;;;;;;;11.90;7.75;;;;;;;-145.19;100.00;59999.88;5009530;28;20088;-72
2021/04/07 05:51:40;;;;;;;16.95;11.02;;;;;;;-145.19;100.00;59999.88;5006526;28;20058;-71
2021/04/07 05:54:07;;;;;;;14.75;9.65;;;;;;;-145.19;100.00;59999.88;5006357;28;20409;-71
2021/04/07 05:56:33;;;;;;;10.68;7.68;;;;;;;-145.19;100.00;59999.88;5008430;28;20133;-71
2021/04/07 05:58:59;;;;;;;11.73;7.80;;;;;;;-145.19;100.00;59999.88;5007196;28;20100;-71
2021/04/07 06:01:25;;;;;;;13.25;9.52;;;;;;;-145.19;100.00;59999.88;5002999;28;21418;-72
2021/04/07 06:03:52;;;;;;;10.02;7.72;;;;;;;-145.19;100.00;59999.88;5001882;28;20045;-73
2021/04/07 06:06:20;;;;;;;11.70;7.25;;;;;;;-145.19;100.00;59999.88;5007881;28;20384;-73
2021/04/07 06:08:46;;;;;;;10.57;7.15;;;;;;;-145.19;100.00;59999.88;5004679;28;20073;-73
2021/04/07 06:11:13;;;;;;;10.48;7.03;;;;;;;-145.19;100.00;59999.88;5006252;28;20065;-69
2021/04/07 06:13:39;;;;;;;12.13;8.20;;;;;;;-145.19;100.00;59999.88;5007747;28;20056;-70
2021/04/07 06:16:05;;;;;;;9.40;6.47;;;;;;;-145.19;100.00;59999.88;5007112;28;20129;-71
2021/04/07 06:18:31;;;;;;;10.63;7.25;;;;;;;-145.19;100.00;59999.88;5004130;28;20072;-71
2021/04/07 06:20:57;;;;;;;11.52;7.13;;;;;;;-145.19;100.00;59999.88;5005738;28;20065;-72
2021/04/07 06:23:24;;;;;;;9.13;6.78;;;;;;;-145.19;100.00;59999.88;5003392;28;20046;-72
2021/04/07 06:25:50;;;;;;;9.60;6.75;;;;;;;-145.19;100.00;59999.88;5007323;28;20034;-71
2021/04/07 06:28:16;;;;;;;36.80;16.80;;;;;;;-145.19;100.00;59999.88;5005735;28;20528;-71
2021/04/07 06:30:45;;;;;;;22.05;11.75;;;;;;;-145.19;100.00;59999.88;5019973;28;20374;-71
2021/04/07 06:33:20;;;;;;;11.88;8.25;;;;;;;-145.19;100.00;59999.88;5007888;28;20054;-71
2021/04/07 06:35:49;;;;;;;12.00;7.60;;;;;;;-145.19;100.00;59999.88;5003932;28;20482;-72
2021/04/07 06:38:17;;;;;;;11.60;7.95;;;;;;;-145.19;100.00;59999.88;5008507;28;20053;-71
2021/04/07 06:40:43;;;;;;;;;;;;;;;-145.19;100.00;59999.88;5000888;28;20402;-72
2021/04/07 06:43:10;;;;;;;11.55;7.05;;;;;;;-145.19;100.00;59999.88;5008966;28;19941;-71
2021/04/07 06:45:38;;;;;;;12.27;9.57;;;;;;;-145.19;100.00;59999.88;5010209;28;20486;-69
2021/04/07 06:48:08;;;;;;;;;;;;;;;-145.19;100.00;59999.88;5006759;28;20069;-71
2021/04/07 06:50:36;;;;;;;10.18;7.25;;;;;;;-145.19;100.00;59999.88;5004057;28;20375;-70
2021/04/07 06:53:07;;;;;;;13.85;6.10;;;;;;;-145.19;100.00;59999.88;5006216;28;20045;-71
2021/04/07 06:55:35;;;;;;;9.50;6.35;;;;;;;-145.19;100.00;59999.88;5003730;28;20141;-70
2021/04/07 06:58:04;;;;;;;12.32;8.10;;;;;;;-145.19;100.00;59999.88;5005818;28;20058;-76
2021/04/07 07:00:32;;;;;;;11.77;8.50;;;;;;;-145.19;100.00;59999.88;4992947;28;20127;-71
2021/04/07 07:02:59;;;;;;;13.68;7.68;;;;;;;-145.19;100.00;59999.88;5002415;28;20044;-71
2021/04/07 07:05:26;;;;;;;10.35;7.57;;;;;;;-145.19;100.00;59999.88;5006651;28;20069;-71
2021/04/07 07:07:59;;;;;;;9.57;7.17;;;;;;;-145.19;100.00;59999.88;5002524;28;20092;-72
2021/04/07 07:10:37;;;;;;;9.73;7.38;;;;;;;-145.19;100.00;59999.88;5024588;28;20096;-71
2021/04/07 07:13:04;;;;;;;10.90;8.02;;;;;;;-145.19;100.00;59999.88;5013169;28;20039;-72
2021/04/07 07:15:31;;;;;;;16.67;10.85;;;;;;;-145.19;100.00;59999.88;5009925;28;20069;-72
2021/04/07 07:17:57;;;;;;;23.77;14.27;;;;;;;-145.19;100.00;59999.88;5000960;28;20120;-72
2021/04/07 07:20:29;;;;;;;10.93;8.75;;;;;;;-145.19;100.00;59999.88;5015038;28;21132;-71
2021/04/07 07:22:55;;;;;;;9.55;7.25;;;;;;;-145.19;100.00;59999.88;5024714;28;20121;-72
2021/04/07 07:25:21;;;;;;;8.68;6.03;;;;;;;-145.19;100.00;59999.88;5011135;28;20046;-72
2021/04/07 07:27:48;;;;;;;10.23;5.20;;;;;;;-145.19;100.00;59999.88;5006409;28;20038;-71
2021/04/07 07:30:15;;;;;;;17.38;8.75;;;;;;;-145.19;100.00;59999.88;5010178;28;20042;-72
2021/04/07 07:32:43;;;;;;;7.40;5.68;;;;;;;-145.19;100.00;59999.88;5005567;28;20074;-73
2021/04/07 07:35:14;;;;;;;10.05;6.70;;;;;;;-145.19;100.00;59999.88;5025741;28;20184;-73
2021/04/07 07:37:43;;;;;;;10.52;6.68;;;;;;;-145.19;100.00;59999.88;5006863;28;20129;-73
2021/04/07 07:40:18;;;;;;;23.52;13.57;;;;;;;-145.19;100.00;59999.88;5008824;28;20044;-73
2021/04/07 07:42:45;;;;;;;31.30;18.00;;;;;;;-145.19;100.00;59999.88;4995064;28;20125;-73
2021/04/07 07:45:13;;;;;;;9.20;6.50;;;;;;;-145.19;100.00;59999.88;5009232;28;20104;-73
2021/04/07 07:47:44;;;;;;;20.15;10.77;;;;;;;-145.19;100.00;59999.88;5011416;28;20042;-73
2021/04/07 07:50:14;;;;;;;8.02;5.88;;;;;;;-145.19;100.00;59999.88;5010715;28;20651;-73
2021/04/07 07:52:42;;;;;;;15.55;9.82;;;;;;;-145.19;100.00;59999.88;5025992;28;20038;-73
2021/04/07 07:55:17;;;;;;;7.60;5.00;;;;;;;-145.19;100.00;59999.88;5013249;28;20106;-73
2021/04/07 07:57:57;;;;;;;7.55;4.88;;;;;;;-145.19;100.00;59999.88;5008196;28;20132;-73
2021/04/07 08:00:25;;;;;;;5.55;4.13;;;;;;;-145.19;100.00;59999.88;5000735;28;20446;-72
2021/04/07 08:02:52;;;;;;;7.35;4.90;;;;;;;-145.19;100.00;59999.88;4994489;28;20050;-68
2021/04/07 08:05:20;;;;;;;5.50;4.43;;;;;;;-145.19;100.00;59999.88;5009215;28;20046;-68
2021/04/07 08:07:46;;;;;;;7.95;5.78;;;;;;;-145.19;100.00;59999.88;5013897;28;20549;-69
2021/04/07 08:10:14;;;;;;;6.35;5.00;;;;;;;-145.19;100.00;59999.88;5013368;28;20446;-69
2021/04/07 08:12:42;;;;;;;18.02;11.52;;;;;;;-145.19;100.00;59999.88;5012160;28;20133;-69
2021/04/07 08:15:10;;;;;;;7.78;5.40;;;;;;;-145.19;100.00;59999.88;5009121;28;20052;-70
2021/04/07 08:17:36;;;;;;;14.07;7.95;;;;;;;-145.19;100.00;59999.88;5009444;28;20550;-69
2021/04/07 08:20:05;;;;;;;7.10;4.88;;;;;;;-145.19;100.00;59999.88;5005556;28;20494;-70
2021/04/07 08:22:36;;;;;;;4.47;3.97;;;;;;;-145.19;100.00;59999.88;5006309;28;20076;-70
2021/04/07 08:25:04;;;;;;;13.07;6.00;;;;;;;-145.19;100.00;59999.88;5004785;28;20054;-70
2021/04/07 08:27:32;;;;;;;7.43;4.40;;;;;;;-145.19;100.00;59999.88;5010131;28;20141;-70
2021/04/07 08:29:58;;;;;;;8.65;6.25;;;;;;;-145.19;100.00;59999.88;5005235;28;20141;-70
2021/04/07 08:32:25;;;;;;;19.00;13.70;;;;;;;-145.19;100.00;59999.88;5003485;28;20044;-70
2021/04/07 08:34:52;;;;;;;16.08;11.68;;;;;;;-145.19;100.00;59999.88;5013281;28;20061;-70
2021/04/07 08:37:29;;;;;;;6.65;4.72;;;;;;;-145.19;100.00;59999.88;5014497;28;20052;-70
2021/04/07 08:39:56;;;;;;;5.72;4.28;;;;;;;-145.19;100.00;59999.88;5003917;28;20042;-68
2021/04/07 08:42:22;;;;;;;6.72;4.22;;;;;;;-145.19;100.00;59999.88;5011497;28;20042;-69
2021/04/07 08:44:50;;;;;;;7.85;4.65;;;;;;;-145.19;100.00;59999.88;5010300;28;20418;-69
2021/04/07 08:47:31;;;;;;;8.30;4.10;;;;;;;-145.19;100.00;59999.88;5003430;28;20042;-69
2021/04/07 08:50:02;;;;;;;5.70;3.65;;;;;;;-145.19;100.00;59999.88;5012259;28;20076;-70
2021/04/07 08:52:28;;;;;;;4.72;4.10;;;;;;;-145.19;100.00;59999.88;5011425;28;20133;-70
2021/04/07 08:54:58;;;;;;;5.55;4.00;;;;;;;-145.19;100.00;59999.88;5004959;28;20125;-69
2021/04/07 08:57:25;;;;;;;9.57;3.40;;;;;;;-145.19;100.00;59999.88;5009419;28;20046;-70
2021/04/07 08:59:53;;;;;;;8.55;4.25;;;;;;;-145.19;100.00;59999.88;5010482;28;20046;-69
2021/04/07 09:02:19;;;;;;;17.10;10.10;;;;;;;-145.19;100.00;59999.88;5002756;28;20386;-69
2021/04/07 09:05:01;;;;;;;11.50;7.40;;;;;;;-145.19;100.00;59999.88;5005554;28;20049;-69
2021/04/07 09:07:41;;;;;;;14.82;9.75;;;;;;;-145.19;100.00;59999.88;5010645;28;20127;-69
2021/04/07 09:10:09;;;;;;;13.10;8.70;;;;;;;-145.19;100.00;59999.88;5009586;28;20093;-69
2021/04/07 09:12:44;;;;;;;7.00;5.95;;;;;;;-145.19;100.00;59999.88;5007594;28;20457;-69
2021/04/07 09:15:21;;;;;;;8.77;6.22;;;;;;;-145.19;100.00;59999.88;5007358;28;20539;-70
2021/04/07 09:17:51;;;;;;;3.92;3.35;;;;;;;-145.19;100.00;59999.88;5009680;28;20052;-69
2021/04/07 09:20:35;;;;;;;5.50;3.60;;;;;;;-145.19;100.00;59999.88;5003058;28;20390;-69
2021/04/07 09:23:19;;;;;;;8.00;4.25;;;;;;;-145.19;100.00;59999.88;5009299;28;20576;-70
2021/04/07 09:25:49;;;;;;;6.30;3.83;;;;;;;-145.19;100.00;59999.88;5008490;28;20117;-69
2021/04/07 09:28:16;;;;;;;6.93;5.75;;;;;;;-145.19;100.00;59999.88;5010475;28;20533;-68
2021/04/07 09:30:47;;;;;;;8.03;5.07;;;;;;;-145.19;100.00;59999.88;5007679;28;20201;-68
2021/04/07 09:33:15;;;;;;;5.25;3.70;;;;;;;-145.19;100.00;59999.88;5005731;28;20121;-70
2021/04/07 09:35:53;;;;;;;5.18;3.53;;;;;;;-145.19;100.00;59999.88;5008990;28;20134;-68
2021/04/07 09:38:19;;;;;;;6.18;3.05;;;;;;;-145.19;100.00;59999.88;5006586;28;20464;-69
2021/04/07 09:40:45;;;;;;;5.07;3.47;;;;;;;-145.19;100.00;59999.88;5001931;28;20052;-69
2021/04/07 09:43:11;;;;;;;5.10;3.92;;;;;;;-145.19;100.00;59999.88;5004822;28;20046;-68
2021/04/07 09:45:37;;;;;;;4.57;3.33;;;;;;;-145.19;100.00;59999.88;5006084;28;20106;-68
2021/04/07 09:48:04;;;;;;;5.95;3.00;;;;;;;-145.19;100.00;59999.88;5004630;28;20046;-70
2021/04/07 09:50:31;;;;;;;3.33;2.47;;;;;;;-145.19;100.00;59999.88;5000988;28;20687;-69
2021/04/07 09:52:58;;;;;;;6.95;3.50;;;;;;;-145.19;100.00;59999.88;5004686;28;20108;-68
2021/04/07 09:55:25;;;;;;;5.85;3.25;;;;;;;-145.19;100.00;59999.88;5005941;28;20405;-69
2021/04/07 09:57:58;;;;;;;4.53;3.13;;;;;;;-145.19;100.00;59999.88;5005583;28;20526;-70
2021/04/07 10:00:32;;;;;;;4.70;3.17;;;;;;;-145.19;100.00;59999.88;5005057;28;20140;-73
2021/04/07 10:03:00;;;;;;;5.18;3.53;;;;;;;-145.19;100.00;59999.88;5007247;28;20077;-69
2021/04/07 10:05:31;;;;;;;4.40;3.15;;;;;;;-145.19;100.00;59999.88;5010429;28;20129;-70
2021/04/07 10:08:14;;;;;;;6.50;3.00;;;;;;;-145.19;100.00;59999.88;5006016;28;20039;-70
2021/04/07 10:10:41;;;;;;;4.65;1.85;;;;;;;-145.19;100.00;59999.88;5001093;28;20051;-69
2021/04/07 10:13:08;;;;;;;5.60;1.80;;;;;;;-145.19;100.00;59999.88;5006476;28;20041;-70
2021/04/07 10:15:37;;;;;;;2.95;2.10;;;;;;;-145.19;100.00;59999.88;5001924;28;20042;-69
2021/04/07 10:18:10;;;;;;;3.50;2.58;;;;;;;-145.19;100.00;59999.88;5006011;28;20056;-70
2021/04/07 10:20:40;;;;;;;2.80;1.92;;;;;;;-145.19;100.00;59999.88;5002615;28;20070;-69
2021/04/07 10:23:08;;;;;;;5.38;4.30;;;;;;;-145.19;100.00;59999.88;5004845;28;20347;-69
2021/04/07 10:25:35;;;;;;;9.40;5.85;;;;;;;-145.19;100.00;59999.88;5009034;28;20073;-69
2021/04/07 10:28:03;;;;;;;3.35;2.67;;;;;;;-145.19;100.00;59999.88;5002827;28;20045;-69
2021/04/07 10:30:35;;;;;;;;;;;;;;;-145.19;100.00;59999.88;5006580;28;20052;-55
2021/04/07 10:33:03;;;;;;;3.63;2.40;;;;;;;-145.19;100.00;59999.88;5006293;28;20324;-57
2021/04/07 10:35:33;;;;;;;3.58;2.05;;;;;;;-145.19;100.00;59999.88;5001270;28;20053;-54
2021/04/07 10:38:03;;;;;;;3.92;1.95;;;;;;;-145.19;100.00;59999.88;4997839;28;20050;-73
2021/04/07 10:40:32;;;;;;;3.03;1.75;;;;;;;-145.19;100.00;59999.88;5002207;28;20124;-72
2021/04/07 10:43:09;;;;;;;4.68;2.58;;;;;;;-145.19;100.00;59999.88;5004260;28;20050;-70
2021/04/07 10:45:35;;;;;;;4.80;1.98;;;;;;;-145.19;100.00;59999.88;5017037;28;20084;-69
2021/04/07 10:48:02;;;;;;;4.07;2.45;;;;;;;-145.19;100.00;59999.88;5004342;28;20046;-71
2021/04/07 10:50:31;;;;;;;3.33;2.45;;;;;;;-145.19;100.00;59999.88;5009348;28;20481;-69
2021/04/07 10:52:57;;;;;;;5.20;3.00;;;;;;;-145.19;100.00;59999.88;5001445;28;20130;-71
2021/04/07 10:55:26;;;;;;;4.55;2.42;;;;;;;-145.19;100.00;59999.88;5006789;28;20045;-71
2021/04/07 10:57:56;;;;;;;8.43;2.15;;;;;;;-145.19;100.00;59999.88;5007649;28;20047;-73
2021/04/07 11:00:37;;;;;;;4.50;2.40;;;;;;;-145.19;100.00;59999.88;5006991;28;20064;-71
2021/04/07 11:03:05;;;;;;;3.15;2.05;;;;;;;-145.19;100.00;59999.88;5027531;28;20037;-71
2021/04/07 11:05:46;;;;;;;3.58;2.05;;;;;;;-145.19;100.00;59999.88;5003089;28;21514;-71
2021/04/07 11:08:16;;;;;;;2.58;2.20;;;;;;;-145.19;100.00;59999.88;5019308;28;20128;-71